Time;durP1;ratioP1;P1;durP2;ratioP2;P2;SDS_P1;SDS_P2;PMS_P1;PMS_P2;Temp;Humidity;BMP_temperature;BMP_pressure;BME280_temperature;BME280_humidity;BME280_pressure;Samples;Min_cycle;Max_cycle;Signal;HPM_P1;HPM_P2
2022/03/07 00:00:50;;;;;;;22.07;10.67;;;-0.20;99.90;;;;;;5091376;28;20210;-61
2022/03/07 00:03:16;;;;;;;23.83;12.07;;;-0.20;99.90;;;;;;5091943;28;20524;-61
2022/03/07 00:05:41;;;;;;;31.37;14.90;;;-0.10;99.90;;;;;;5091055;28;20209;-62
2022/03/07 00:08:08;;;;;;;31.97;14.47;;;-0.10;99.90;;;;;;5092093;28;20194;-61
2022/03/07 00:10:34;;;;;;;31.43;13.90;;;-0.10;99.90;;;;;;5091769;28;20182;-61
2022/03/07 00:13:00;;;;;;;28.90;14.40;;;-0.20;99.90;;;;;;5091430;28;20790;-60
2022/03/07 00:15:26;;;;;;;26.60;13.73;;;-0.30;99.90;;;;;;5091708;28;20182;-60
2022/03/07 00:17:51;;;;;;;33.90;14.80;;;-0.30;99.90;;;;;;5091099;28;20185;-62
2022/03/07 00:20:17;;;;;;;28.30;12.07;;;-0.30;99.90;;;;;;5091303;28;20191;-64
2022/03/07 00:22:43;;;;;;;28.40;12.43;;;-0.30;99.90;;;;;;5091330;28;20235;-60
2022/03/07 00:25:09;;;;;;;25.87;13.57;;;-0.30;99.90;;;;;;5091640;28;20178;-62
2022/03/07 00:27:35;;;;;;;27.73;13.40;;;-0.30;99.90;;;;;;5073095;28;20173;-61
2022/03/07 00:30:01;;;;;;;29.20;14.07;;;-0.40;99.90;;;;;;5091180;28;20178;-62
2022/03/07 00:32:27;;;;;;;26.67;12.93;;;-0.40;99.90;;;;;;5069544;28;20237;-61
2022/03/07 00:34:54;;;;;;;29.70;12.93;;;-0.40;99.90;;;;;;5070912;28;20183;-62
2022/03/07 00:37:20;;;;;;;25.60;13.00;;;-0.40;99.90;;;;;;5071897;28;20186;-60
2022/03/07 00:39:46;;;;;;;24.53;12.43;;;-0.40;99.90;;;;;;5071138;28;20681;-61
2022/03/07 00:42:11;;;;;;;30.83;13.77;;;-0.40;99.90;;;;;;5071484;28;20556;-60
2022/03/07 00:44:37;;;;;;;28.20;13.60;;;-0.40;99.90;;;;;;5071388;28;20184;-62
2022/03/07 00:47:03;;;;;;;25.70;13.70;;;-0.30;99.90;;;;;;5070663;28;20183;-61
2022/03/07 00:49:29;;;;;;;26.90;12.53;;;-0.30;99.90;;;;;;5071482;28;20647;-61
2022/03/07 00:51:57;;;;;;;26.53;13.23;;;-0.30;99.90;;;;;;5070995;28;20217;-62
2022/03/07 00:54:22;;;;;;;29.27;13.70;;;-0.40;99.90;;;;;;5071314;28;20195;-62
2022/03/07 00:56:48;;;;;;;26.53;13.40;;;-0.30;99.90;;;;;;5071215;28;20178;-62
2022/03/07 00:59:14;;;;;;;27.43;13.33;;;-0.20;99.90;;;;;;5071144;28;20202;-61
2022/03/07 01:01:40;;;;;;;31.27;13.57;;;-0.20;99.90;;;;;;5069495;28;20198;-61
2022/03/07 01:04:06;;;;;;;32.43;14.43;;;-0.20;99.90;;;;;;5069966;28;20187;-61
2022/03/07 01:06:31;;;;;;;28.33;14.50;;;-0.20;99.90;;;;;;5071217;28;20271;-62
2022/03/07 01:08:57;;;;;;;29.20;13.50;;;-0.20;99.90;;;;;;5070858;28;20191;-62
2022/03/07 01:11:23;;;;;;;28.63;13.23;;;-0.20;99.90;;;;;;5069963;28;20211;-60
2022/03/07 01:13:49;;;;;;;25.50;12.73;;;-0.20;99.90;;;;;;5070094;28;20544;-61
2022/03/07 01:16:14;;;;;;;19.60;10.67;;;-0.20;99.90;;;;;;5053527;28;20309;-62
2022/03/07 01:18:40;;;;;;;24.27;11.60;;;-0.20;99.90;;;;;;5071536;28;20187;-61
2022/03/07 01:21:06;;;;;;;27.47;11.17;;;-0.20;99.90;;;;;;5074350;28;20649;-61
2022/03/07 01:23:31;;;;;;;24.37;12.03;;;-0.20;99.90;;;;;;5074615;28;20266;-61
2022/03/07 01:25:57;;;;;;;22.70;12.60;;;-0.10;99.90;;;;;;5074388;28;20180;-61
2022/03/07 01:28:23;;;;;;;23.57;11.40;;;-0.20;99.90;;;;;;5074612;28;20179;-61
2022/03/07 01:30:49;;;;;;;24.37;11.63;;;-0.20;99.90;;;;;;5076307;28;20190;-62
2022/03/07 01:33:15;;;;;;;26.80;12.87;;;-0.30;99.90;;;;;;5095440;28;20178;-62
2022/03/07 01:35:41;;;;;;;26.53;12.90;;;-0.30;99.90;;;;;;5094743;28;20227;-62
2022/03/07 01:38:07;;;;;;;29.13;12.30;;;-0.40;99.90;;;;;;5094432;28;20225;-61
2022/03/07 01:40:33;;;;;;;25.83;12.60;;;-0.40;99.90;;;;;;5094706;28;20177;-62
2022/03/07 01:42:58;;;;;;;24.83;13.00;;;-0.40;99.90;;;;;;5094270;28;20178;-62
2022/03/07 01:45:24;;;;;;;28.23;13.40;;;-0.40;99.90;;;;;;5094602;28;20182;-61
2022/03/07 01:47:50;;;;;;;31.33;13.50;;;-0.40;99.90;;;;;;5094232;28;20181;-62
2022/03/07 01:50:19;;;;;;;23.27;12.57;;;-0.30;99.90;;;;;;5094506;28;20182;-61
2022/03/07 01:52:47;;;;;;;26.30;12.13;;;-0.40;99.90;;;;;;5093739;28;20643;-62
2022/03/07 01:55:14;;;;;;;22.57;11.87;;;-0.40;99.90;;;;;;5094504;28;20544;-60
2022/03/07 01:57:42;;;;;;;23.30;11.57;;;-0.40;99.90;;;;;;5094351;28;20589;-61
2022/03/07 02:00:15;;;;;;;22.13;11.20;;;-0.50;99.90;;;;;;5094057;28;20178;-61
2022/03/07 02:02:42;;;;;;;24.23;11.07;;;-0.50;99.90;;;;;;5094370;28;20552;-62
2022/03/07 02:05:10;;;;;;;26.50;11.17;;;-0.50;99.90;;;;;;5094124;28;20182;-61
2022/03/07 02:07:37;;;;;;;26.07;12.47;;;-0.50;99.90;;;;;;5094103;28;20175;-60
2022/03/07 02:10:04;;;;;;;26.70;13.07;;;-0.50;99.90;;;;;;5093708;28;20182;-61
2022/03/07 02:12:30;;;;;;;28.60;13.30;;;-0.60;99.90;;;;;;5065379;28;20218;-61
2022/03/07 02:14:56;;;;;;;24.07;12.30;;;-0.60;99.90;;;;;;5081880;28;20935;-61
2022/03/07 02:17:22;;;;;;;29.67;14.00;;;-0.60;99.90;;;;;;5079629;28;20181;-61
2022/03/07 02:19:48;;;;;;;29.60;13.50;;;-0.70;99.90;;;;;;5093753;28;20203;-61
2022/03/07 02:22:15;;;;;;;33.83;14.30;;;-0.70;99.90;;;;;;5093849;28;20188;-62
2022/03/07 02:24:41;;;;;;;30.97;13.87;;;-0.70;99.90;;;;;;5093811;28;20321;-61
2022/03/07 02:27:09;;;;;;;27.70;13.83;;;-0.70;99.90;;;;;;5093415;28;20169;-62
2022/03/07 02:29:36;;;;;;;27.33;14.10;;;-0.70;99.90;;;;;;5093458;28;20176;-61
2022/03/07 02:32:03;;;;;;;30.30;14.30;;;-0.70;99.90;;;;;;5092746;28;20225;-60
2022/03/07 02:34:29;;;;;;;29.43;14.50;;;-0.60;99.90;;;;;;5075569;28;20264;-60
2022/03/07 02:36:55;;;;;;;27.97;13.43;;;-0.60;99.90;;;;;;5093056;28;20265;-61
2022/03/07 02:39:21;;;;;;;29.67;14.40;;;-0.60;99.90;;;;;;5093657;28;20200;-61
2022/03/07 02:41:47;;;;;;;29.43;14.80;;;-0.50;99.90;;;;;;5093154;28;20215;-68
2022/03/07 02:44:13;;;;;;;27.37;13.60;;;-0.60;99.90;;;;;;5093926;28;20546;-61
2022/03/07 02:46:39;;;;;;;33.10;14.57;;;-0.60;99.90;;;;;;5075138;28;20177;-60
2022/03/07 02:49:06;;;;;;;27.30;13.40;;;-0.60;99.90;;;;;;5074794;28;20185;-61
2022/03/07 02:51:32;;;;;;;27.20;13.97;;;-0.70;99.90;;;;;;5075172;28;20660;-60
2022/03/07 02:53:58;;;;;;;24.53;12.53;;;-0.70;99.90;;;;;;5074537;28;20346;-62
2022/03/07 02:56:23;;;;;;;31.17;14.20;;;-0.70;99.90;;;;;;5093410;28;20291;-61
2022/03/07 02:58:49;;;;;;;27.23;14.57;;;-0.70;99.90;;;;;;5092829;28;20181;-61
2022/03/07 03:01:16;;;;;;;34.50;15.77;;;-0.70;99.90;;;;;;5093022;28;20187;-60
2022/03/07 03:03:41;;;;;;;27.47;14.17;;;-0.80;99.90;;;;;;5093031;28;20204;-61
2022/03/07 03:06:07;;;;;;;32.60;14.80;;;-0.80;99.90;;;;;;5092789;28;20315;-62
2022/03/07 03:08:34;;;;;;;25.10;12.57;;;-0.80;99.90;;;;;;5092681;28;20719;-62
2022/03/07 03:11:01;;;;;;;24.63;12.67;;;-0.70;99.90;;;;;;5092661;28;20188;-62
2022/03/07 03:13:27;;;;;;;25.93;11.47;;;-0.70;99.90;;;;;;5092987;28;20198;-61
2022/03/07 03:15:53;;;;;;;26.53;11.90;;;-0.70;99.90;;;;;;5092704;28;20173;-61
2022/03/07 03:18:19;;;;;;;25.47;12.47;;;-0.70;99.90;;;;;;5092686;28;20212;-62
2022/03/07 03:20:47;;;;;;;35.37;12.97;;;-0.70;99.90;;;;;;5092456;28;20204;-61
2022/03/07 03:23:13;;;;;;;23.10;11.00;;;-0.60;99.90;;;;;;5092294;28;20617;-60
2022/03/07 03:25:39;;;;;;;28.03;12.50;;;-0.70;99.90;;;;;;5074382;28;20227;-63
2022/03/07 03:28:06;;;;;;;25.80;11.50;;;-0.70;99.90;;;;;;5057525;28;20177;-60
2022/03/07 03:30:32;;;;;;;25.27;11.63;;;-0.70;99.90;;;;;;5092450;28;20521;-61
2022/03/07 03:32:58;;;;;;;20.53;11.23;;;-0.70;99.90;;;;;;5071795;28;20228;-60
2022/03/07 03:35:24;;;;;;;23.47;11.77;;;-0.70;99.90;;;;;;5072350;28;20182;-63
2022/03/07 03:37:50;;;;;;;22.70;12.23;;;-0.80;99.90;;;;;;5071685;28;20246;-69
2022/03/07 03:40:16;;;;;;;29.50;12.47;;;-0.80;99.90;;;;;;5071548;28;20565;-61
2022/03/07 03:42:42;;;;;;;28.97;13.87;;;-0.80;99.90;;;;;;5071973;28;20690;-61
2022/03/07 03:45:09;;;;;;;25.07;10.97;;;-0.80;99.90;;;;;;5071823;28;20649;-60
2022/03/07 03:47:35;;;;;;;24.03;11.30;;;-0.80;99.90;;;;;;5071957;28;20194;-62
2022/03/07 03:50:02;;;;;;;22.00;10.53;;;-0.80;99.90;;;;;;5071620;28;20174;-61
2022/03/07 03:52:28;;;;;;;24.87;12.57;;;-0.90;99.90;;;;;;5071968;28;20212;-61
2022/03/07 03:54:55;;;;;;;21.90;11.33;;;-0.90;99.90;;;;;;5071224;28;20177;-61
2022/03/07 03:57:22;;;;;;;28.70;12.37;;;-0.90;99.90;;;;;;5071989;28;20189;-60
2022/03/07 03:59:48;;;;;;;31.23;12.47;;;-0.90;99.90;;;;;;5071893;28;20645;-61
2022/03/07 04:02:13;;;;;;;25.17;12.07;;;-0.80;99.90;;;;;;5071658;28;20273;-61
2022/03/07 04:04:40;;;;;;;21.37;10.97;;;-0.80;99.90;;;;;;5037044;28;20721;-61
2022/03/07 04:07:06;;;;;;;20.57;10.40;;;-0.80;99.90;;;;;;5071285;28;20707;-63
2022/03/07 04:09:32;;;;;;;21.07;10.67;;;-0.80;99.90;;;;;;5071717;28;20259;-60
2022/03/07 04:11:58;;;;;;;23.17;11.03;;;-0.70;99.90;;;;;;5053217;28;20248;-60
2022/03/07 04:14:24;;;;;;;24.90;10.47;;;-0.70;99.90;;;;;;5071688;28;20181;-60
2022/03/07 04:16:50;;;;;;;19.63;9.67;;;-0.70;99.90;;;;;;5073184;28;20264;-60
2022/03/07 04:19:17;;;;;;;25.93;11.53;;;-0.70;99.90;;;;;;5073373;28;20279;-60
2022/03/07 04:21:43;;;;;;;19.20;10.00;;;-0.70;99.90;;;;;;5091527;28;20611;-61
2022/03/07 04:24:10;;;;;;;24.60;10.00;;;-0.80;99.90;;;;;;5091390;28;20220;-62
2022/03/07 04:26:36;;;;;;;25.27;10.37;;;-0.80;99.90;;;;;;5091525;28;20641;-61
2022/03/07 04:29:07;;;;;;;21.60;9.50;;;-0.80;99.90;;;;;;5091484;28;20222;-60
2022/03/07 04:31:41;;;;;;;17.43;8.67;;;-0.80;99.90;;;;;;5091173;28;20232;-61
2022/03/07 04:34:08;;;;;;;19.10;10.37;;;-0.80;99.90;;;;;;5091086;28;20263;-61
2022/03/07 04:36:37;;;;;;;20.13;9.73;;;-0.70;99.90;;;;;;5091896;28;20191;-61
2022/03/07 04:39:04;;;;;;;29.07;11.07;;;-0.80;99.90;;;;;;5091009;28;20288;-60
2022/03/07 04:41:30;;;;;;;25.87;11.13;;;-0.90;99.90;;;;;;5072794;28;20590;-61
2022/03/07 04:43:56;;;;;;;27.20;9.60;;;-0.90;99.90;;;;;;5090255;28;20521;-61
2022/03/07 04:46:22;;;;;;;20.27;10.43;;;-0.90;99.90;;;;;;5091345;28;20190;-62
2022/03/07 04:48:48;;;;;;;18.17;10.00;;;-0.90;99.90;;;;;;5091485;28;20181;-61
2022/03/07 04:51:14;;;;;;;25.60;11.77;;;-0.90;99.90;;;;;;5090937;28;20244;-61
2022/03/07 04:53:40;;;;;;;32.17;12.10;;;-0.90;99.90;;;;;;5074938;28;20192;-60
2022/03/07 04:56:06;;;;;;;23.97;11.50;;;-0.90;99.90;;;;;;5076445;28;20199;-60
2022/03/07 04:58:32;;;;;;;24.30;12.80;;;-0.90;99.90;;;;;;5095297;28;20216;-60
2022/03/07 05:00:58;;;;;;;27.17;11.60;;;-0.80;99.90;;;;;;5076500;28;20308;-60
2022/03/07 05:03:23;;;;;;;24.70;12.07;;;-0.80;99.90;;;;;;5094995;28;20176;-61
2022/03/07 05:05:50;;;;;;;25.77;12.47;;;-0.70;99.90;;;;;;5095156;28;20195;-61
2022/03/07 05:08:16;;;;;;;24.43;12.20;;;-0.60;99.90;;;;;;5094873;28;20176;-62
2022/03/07 05:10:42;;;;;;;24.27;11.90;;;-0.60;99.90;;;;;;5076623;28;20263;-61
2022/03/07 05:13:08;;;;;;;23.93;12.53;;;-0.60;99.90;;;;;;5075957;28;20348;-61
2022/03/07 05:15:34;;;;;;;27.23;13.07;;;-0.60;99.90;;;;;;5095139;28;20172;-61
2022/03/07 05:18:00;;;;;;;25.47;12.97;;;-0.60;99.90;;;;;;5094902;28;20213;-60
2022/03/07 05:20:26;;;;;;;26.80;13.17;;;-0.60;99.90;;;;;;5095247;28;20186;-61
2022/03/07 05:22:53;;;;;;;26.73;13.47;;;-0.60;99.90;;;;;;5075979;28;20645;-62
2022/03/07 05:25:20;;;;;;;27.27;12.63;;;-0.60;99.90;;;;;;5093872;28;20272;-61
2022/03/07 05:27:47;;;;;;;28.00;12.40;;;-0.60;99.90;;;;;;5094474;28;20177;-62
2022/03/07 05:30:17;;;;;;;31.63;12.63;;;-0.50;99.90;;;;;;5093987;28;20175;-59
2022/03/07 05:32:48;;;;;;;30.03;13.93;;;-0.50;99.90;;;;;;5075643;28;20237;-59
2022/03/07 05:35:14;;;;;;;38.43;14.27;;;-0.50;99.90;;;;;;5093592;28;20640;-62
2022/03/07 05:37:40;;;;;;;28.67;12.60;;;-0.50;99.90;;;;;;5076752;28;20370;-60
2022/03/07 05:40:08;;;;;;;32.43;13.63;;;-0.40;99.90;;;;;;5075786;28;20192;-61
2022/03/07 05:42:36;;;;;;;31.03;13.07;;;-0.40;99.90;;;;;;5093466;28;20204;-64
2022/03/07 05:45:03;;;;;;;26.20;12.07;;;-0.40;99.90;;;;;;5091152;28;20200;-63
2022/03/07 05:47:29;;;;;;;30.10;12.93;;;-0.30;99.90;;;;;;5091888;28;20177;-59
2022/03/07 05:49:55;;;;;;;31.73;12.93;;;-0.30;99.90;;;;;;5091529;28;20597;-62
2022/03/07 05:52:20;;;;;;;23.23;11.90;;;-0.30;99.90;;;;;;5091771;28;20227;-59
2022/03/07 05:54:46;;;;;;;43.63;13.53;;;-0.30;99.90;;;;;;5093026;28;20186;-60
2022/03/07 05:57:12;;;;;;;27.90;12.77;;;-0.30;99.90;;;;;;5057619;28;20586;-62
2022/03/07 05:59:38;;;;;;;32.53;13.47;;;-0.30;99.90;;;;;;5092865;28;20662;-61
2022/03/07 06:02:03;;;;;;;25.20;11.70;;;-0.20;99.90;;;;;;5093102;28;20186;-61
2022/03/07 06:04:29;;;;;;;26.07;12.17;;;-0.20;99.90;;;;;;5093616;28;20186;-60
2022/03/07 06:06:55;;;;;;;32.77;13.30;;;-0.20;99.90;;;;;;5092719;28;20203;-65
2022/03/07 06:09:21;;;;;;;25.37;12.30;;;-0.20;99.90;;;;;;5091749;28;20165;-60
2022/03/07 06:11:46;;;;;;;27.43;13.47;;;-0.20;99.90;;;;;;5093063;28;20603;-61
2022/03/07 06:14:12;;;;;;;39.13;14.23;;;-0.20;99.90;;;;;;5092574;28;20503;-62
2022/03/07 06:16:38;;;;;;;33.80;14.10;;;-0.30;99.90;;;;;;5058138;28;20182;-63
2022/03/07 06:19:04;;;;;;;26.67;13.60;;;-0.20;99.90;;;;;;5093109;28;20696;-61
2022/03/07 06:21:30;;;;;;;29.03;13.63;;;-0.20;99.90;;;;;;5093379;28;20177;-58
2022/03/07 06:23:56;;;;;;;27.20;12.93;;;-0.20;99.90;;;;;;5093134;28;20188;-63
2022/03/07 06:26:23;;;;;;;36.47;14.93;;;-0.30;99.90;;;;;;5092551;28;20185;-60
2022/03/07 06:28:48;;;;;;;27.37;13.97;;;-0.20;99.90;;;;;;5092535;28;20181;-62
2022/03/07 06:31:14;;;;;;;38.37;14.67;;;-0.10;99.90;;;;;;5074081;28;20697;-61
2022/03/07 06:33:40;;;;;;;34.87;14.40;;;-0.10;99.90;;;;;;5092850;28;20388;-62
2022/03/07 06:36:06;;;;;;;33.30;15.70;;;-0.10;99.90;;;;;;5074868;28;20182;-64
2022/03/07 06:38:33;;;;;;;38.53;16.20;;;-0.10;99.90;;;;;;5093287;28;20182;-62
2022/03/07 06:40:58;;;;;;;45.07;15.77;;;-0.10;99.90;;;;;;5092494;28;20185;-67
2022/03/07 06:43:25;;;;;;;32.77;13.43;;;-0.10;99.90;;;;;;5092450;28;20169;-59
2022/03/07 06:45:52;;;;;;;35.70;14.40;;;-0.10;99.90;;;;;;5074563;28;20208;-62
2022/03/07 06:48:17;;;;;;;26.57;12.53;;;0.00;99.90;;;;;;5062938;28;20189;-60
2022/03/07 06:50:43;;;;;;;30.07;13.57;;;0.10;99.90;;;;;;5073243;28;20553;-63
2022/03/07 06:53:09;;;;;;;27.80;14.10;;;0.10;99.90;;;;;;5089956;28;20681;-64
2022/03/07 06:55:35;;;;;;;33.07;15.10;;;0.00;99.90;;;;;;5080974;28;20189;-60
2022/03/07 06:58:01;;;;;;;30.07;14.30;;;0.00;99.90;;;;;;5077221;28;20207;-64
2022/03/07 07:00:26;;;;;;;33.30;15.73;;;0.00;99.90;;;;;;5074640;28;20225;-61
2022/03/07 07:02:52;;;;;;;30.50;14.37;;;-0.10;99.90;;;;;;5056081;28;20645;-61
2022/03/07 07:05:18;;;;;;;29.67;15.23;;;-0.10;99.90;;;;;;5062761;28;20227;-62
2022/03/07 07:07:44;;;;;;;30.00;14.77;;;0.00;99.90;;;;;;5092087;28;20185;-61
2022/03/07 07:10:11;;;;;;;31.20;14.03;;;0.20;99.90;;;;;;5088102;28;20201;-60
2022/03/07 07:12:37;;;;;;;30.90;12.97;;;0.30;99.90;;;;;;5091849;28;20209;-61
2022/03/07 07:15:06;;;;;;;31.40;13.30;;;0.30;99.90;;;;;;5087345;28;20243;-60
2022/03/07 07:17:33;;;;;;;30.43;14.20;;;0.20;99.90;;;;;;5083752;28;20184;-62
2022/03/07 07:19:59;;;;;;;27.67;14.00;;;0.20;99.90;;;;;;5072050;28;20198;-61
2022/03/07 07:22:24;;;;;;;35.30;15.03;;;0.30;99.90;;;;;;5053421;28;20197;-60
2022/03/07 07:24:51;;;;;;;34.17;13.93;;;0.40;99.90;;;;;;5085389;28;20465;-61
2022/03/07 07:27:17;;;;;;;30.67;13.20;;;0.50;99.90;;;;;;5056258;28;20194;-61
2022/03/07 07:29:43;;;;;;;27.53;13.07;;;0.50;99.90;;;;;;5077600;28;20191;-60
2022/03/07 07:32:09;;;;;;;27.83;13.53;;;0.30;99.90;;;;;;5089975;28;20295;-63
2022/03/07 07:34:34;;;;;;;30.43;14.83;;;0.30;99.90;;;;;;5085951;28;20239;-61
2022/03/07 07:37:00;;;;;;;38.00;14.63;;;0.20;99.90;;;;;;5091772;28;20177;-60
2022/03/07 07:39:26;;;;;;;34.90;16.10;;;0.20;99.90;;;;;;5079948;28;20184;-60
2022/03/07 07:41:51;;;;;;;30.40;14.20;;;0.20;99.90;;;;;;5086958;28;20193;-60
2022/03/07 07:44:18;;;;;;;30.53;13.87;;;0.20;99.90;;;;;;5062509;28;20271;-59
2022/03/07 07:46:44;;;;;;;28.17;14.23;;;0.30;99.90;;;;;;5070772;28;20194;-62
2022/03/07 07:49:11;;;;;;;29.93;13.83;;;0.20;99.90;;;;;;5070483;28;20646;-61
2022/03/07 07:51:36;;;;;;;30.80;15.13;;;0.20;99.90;;;;;;5072057;28;20540;-60
2022/03/07 07:54:02;;;;;;;31.57;14.47;;;0.10;99.90;;;;;;5082713;28;20213;-69
2022/03/07 07:56:29;;;;;;;31.23;13.83;;;0.10;99.90;;;;;;5084257;28;20269;-60
2022/03/07 07:58:55;;;;;;;28.50;13.87;;;0.10;99.90;;;;;;5091308;28;20180;-59
2022/03/07 08:01:21;;;;;;;28.73;13.70;;;0.00;99.90;;;;;;5091062;28;20185;-61
2022/03/07 08:03:46;;;;;;;27.33;13.07;;;0.10;99.90;;;;;;5091499;28;20188;-61
2022/03/07 08:06:12;;;;;;;31.33;16.37;;;0.10;99.90;;;;;;5090622;28;20536;-60
2022/03/07 08:08:38;;;;;;;35.23;15.57;;;0.10;99.90;;;;;;5090287;28;20663;-60
2022/03/07 08:11:04;;;;;;;33.47;17.30;;;0.10;99.90;;;;;;5089351;28;20310;-65
2022/03/07 08:13:29;;;;;;;31.57;15.97;;;0.10;99.90;;;;;;5090160;28;20268;-64
2022/03/07 08:15:55;;;;;;;29.37;14.47;;;0.10;99.90;;;;;;5089894;28;20174;-60
2022/03/07 08:18:21;;;;;;;30.70;14.73;;;0.20;99.90;;;;;;5090264;28;20249;-59
2022/03/07 08:20:47;;;;;;;27.97;13.80;;;0.20;99.90;;;;;;5089421;28;20247;-60
2022/03/07 08:23:13;;;;;;;34.47;16.87;;;0.20;99.90;;;;;;5090807;28;20217;-59
2022/03/07 08:25:38;;;;;;;29.73;15.17;;;0.40;99.90;;;;;;5072874;28;20190;-61
2022/03/07 08:28:04;;;;;;;32.27;15.50;;;0.50;99.90;;;;;;5072979;28;20228;-66
2022/03/07 08:30:30;;;;;;;37.00;18.50;;;0.60;99.90;;;;;;5090453;28;20713;-63
2022/03/07 08:32:56;;;;;;;31.07;16.20;;;0.70;99.90;;;;;;5072810;28;20325;-63
2022/03/07 08:35:23;;;;;;;34.77;16.97;;;0.60;99.90;;;;;;5091005;28;20178;-61
2022/03/07 08:37:50;;;;;;;28.33;16.00;;;0.50;99.90;;;;;;5090843;28;20209;-61
2022/03/07 08:40:17;;;;;;;31.07;15.20;;;0.70;99.90;;;;;;5072713;28;20184;-61
2022/03/07 08:42:44;;;;;;;38.23;18.03;;;0.70;99.90;;;;;;5090782;28;20648;-61
2022/03/07 08:45:11;;;;;;;32.53;16.13;;;0.70;99.90;;;;;;5090878;28;20182;-62
2022/03/07 08:47:38;;;;;;;34.37;16.67;;;0.80;99.90;;;;;;5090655;28;20183;-59
2022/03/07 08:50:06;;;;;;;34.40;16.70;;;0.80;99.90;;;;;;5090946;28;20261;-66
2022/03/07 08:52:32;;;;;;;33.53;16.77;;;0.80;99.90;;;;;;5090732;28;20210;-61
2022/03/07 08:54:58;;;;;;;35.10;17.40;;;0.60;99.90;;;;;;5090620;28;20178;-61
2022/03/07 08:57:23;;;;;;;33.90;15.87;;;0.60;99.90;;;;;;5090626;28;20202;-59
2022/03/07 08:59:49;;;;;;;29.70;14.37;;;0.70;99.90;;;;;;5090683;28;20182;-60
2022/03/07 09:02:15;;;;;;;34.87;16.37;;;0.60;99.90;;;;;;5090221;28;20199;-60
2022/03/07 09:04:41;;;;;;;30.93;14.40;;;0.60;99.90;;;;;;5090981;28;20228;-61
2022/03/07 09:07:07;;;;;;;32.63;15.77;;;0.50;99.90;;;;;;5090644;28;20181;-68
2022/03/07 09:09:33;;;;;;;31.70;15.57;;;0.50;99.90;;;;;;5091249;28;20636;-60
2022/03/07 09:12:00;;;;;;;39.13;17.37;;;0.60;99.90;;;;;;5090762;28;20218;-62
2022/03/07 09:14:26;;;;;;;38.07;16.37;;;0.70;99.90;;;;;;5090387;28;20183;-61
2022/03/07 09:16:51;;;;;;;35.23;17.30;;;0.60;99.90;;;;;;5090110;28;20269;-59
2022/03/07 09:19:17;;;;;;;34.80;17.00;;;0.70;99.90;;;;;;5055797;28;20184;-61
2022/03/07 09:21:43;;;;;;;38.33;16.83;;;0.60;99.90;;;;;;5090166;28;20279;-59
2022/03/07 09:24:09;;;;;;;32.97;16.00;;;0.50;99.90;;;;;;5090327;28;20262;-61
2022/03/07 09:26:35;;;;;;;34.27;15.03;;;0.30;99.90;;;;;;5090464;28;20222;-60
2022/03/07 09:29:01;;;;;;;28.23;13.27;;;0.10;99.90;;;;;;5090670;28;20192;-62
2022/03/07 09:31:27;;;;;;;26.50;12.43;;;-0.10;99.90;;;;;;5089461;28;20240;-59
2022/03/07 09:33:53;;;;;;;29.93;13.17;;;-0.20;99.90;;;;;;5090095;28;20225;-61
2022/03/07 09:36:19;;;;;;;28.50;12.57;;;-0.20;99.90;;;;;;5090052;28;20301;-61
2022/03/07 09:38:44;;;;;;;22.53;11.73;;;-0.30;99.90;;;;;;5090690;28;20633;-62
2022/03/07 09:41:11;;;;;;;23.20;12.17;;;-0.30;99.90;;;;;;5093692;28;20227;-60
2022/03/07 09:43:37;;;;;;;24.43;12.70;;;-0.30;99.90;;;;;;5093781;28;20176;-59
2022/03/07 09:46:03;;;;;;;23.53;11.43;;;-0.30;99.90;;;;;;5094098;28;20196;-61
2022/03/07 09:48:30;;;;;;;18.63;8.93;;;-0.30;99.90;;;;;;5093273;28;20223;-61
2022/03/07 09:50:56;;;;;;;21.43;10.70;;;-0.40;99.90;;;;;;5093579;28;20226;-60
2022/03/07 09:53:23;;;;;;;21.63;11.30;;;-0.50;99.90;;;;;;5093552;28;20227;-61
2022/03/07 09:55:49;;;;;;;21.83;11.60;;;-0.50;99.90;;;;;;5093286;28;20176;-62
2022/03/07 09:58:15;;;;;;;22.73;11.57;;;-0.40;99.90;;;;;;5092726;28;20173;-60
2022/03/07 10:00:42;;;;;;;23.60;11.63;;;-0.30;99.90;;;;;;5092845;28;20189;-61
2022/03/07 10:03:10;;;;;;;22.50;11.30;;;-0.30;99.90;;;;;;5093357;28;20276;-60
2022/03/07 10:05:42;;;;;;;20.10;10.73;;;-0.20;99.90;;;;;;5074621;28;20544;-59
2022/03/07 10:08:08;;;;;;;20.70;11.07;;;-0.30;99.90;;;;;;5074332;28;20196;-60
2022/03/07 10:10:41;;;;;;;20.10;10.83;;;-0.30;99.90;;;;;;5092567;28;20177;-62
2022/03/07 10:13:10;;;;;;;22.13;11.00;;;-0.50;99.90;;;;;;5074655;28;20566;-61
2022/03/07 10:15:38;;;;;;;16.47;9.97;;;-0.60;99.90;;;;;;5092969;28;20193;-59
2022/03/07 10:18:04;;;;;;;19.07;9.53;;;-0.50;99.90;;;;;;5092161;28;20184;-60
2022/03/07 10:20:30;;;;;;;17.47;10.13;;;-0.40;99.90;;;;;;5092921;28;20176;-61
2022/03/07 10:23:00;;;;;;;19.83;8.77;;;-0.30;99.90;;;;;;5092546;28;20184;-61
2022/03/07 10:25:29;;;;;;;22.17;10.87;;;-0.20;99.90;;;;;;5092861;28;20177;-61
2022/03/07 10:27:56;;;;;;;18.60;9.50;;;-0.20;99.90;;;;;;5093339;28;20205;-63
2022/03/07 10:30:30;;;;;;;21.57;10.37;;;-0.20;99.90;;;;;;5092805;28;20274;-61
2022/03/07 10:33:01;;;;;;;19.67;10.80;;;-0.20;99.90;;;;;;5093303;28;20229;-61
2022/03/07 10:35:30;;;;;;;18.40;9.97;;;-0.10;99.90;;;;;;5092788;28;20180;-61
2022/03/07 10:38:08;;;;;;;23.87;11.07;;;-0.10;99.90;;;;;;5074684;28;20233;-61
2022/03/07 10:40:36;;;;;;;20.70;9.03;;;0.00;99.90;;;;;;5092424;28;20248;-60
2022/03/07 10:43:04;;;;;;;17.10;8.97;;;-0.20;99.90;;;;;;5091795;28;20276;-59
2022/03/07 10:45:31;;;;;;;14.53;7.63;;;-0.30;99.90;;;;;;5091806;28;20272;-59
2022/03/07 10:48:03;;;;;;;15.60;8.17;;;-0.40;99.90;;;;;;5074012;28;20633;-63
2022/03/07 10:50:29;;;;;;;18.87;7.73;;;-0.50;99.90;;;;;;5092252;28;20180;-62
2022/03/07 10:53:04;;;;;;;15.07;7.67;;;-0.50;99.90;;;;;;5073589;28;20221;-63
2022/03/07 10:55:31;;;;;;;16.97;8.13;;;-0.50;99.90;;;;;;5073628;28;20527;-62
2022/03/07 10:58:11;;;;;;;20.57;10.00;;;-0.50;99.90;;;;;;5091882;28;20177;-60
2022/03/07 11:01:05;;;;;;;18.73;10.40;;;-0.50;99.90;;;;;;5091422;28;20183;-63
2022/03/07 11:03:33;;;;;;;21.33;10.40;;;-0.40;99.90;;;;;;5069669;28;20219;-60
2022/03/07 11:06:00;;;;;;;17.53;9.70;;;-0.50;99.90;;;;;;5073465;28;20188;-58
2022/03/07 11:08:28;;;;;;;18.50;9.97;;;-0.60;99.90;;;;;;5091239;28;20173;-61
2022/03/07 11:10:56;;;;;;;16.90;8.00;;;-0.60;99.90;;;;;;5091573;28;20172;-59
2022/03/07 11:13:26;;;;;;;19.13;9.17;;;-0.70;99.90;;;;;;5072716;28;20266;-61
2022/03/07 11:15:58;;;;;;;14.67;8.07;;;-0.70;99.90;;;;;;5091832;28;20173;-60
2022/03/07 11:18:25;;;;;;;15.73;8.03;;;-0.70;99.90;;;;;;5072168;28;20655;-60
2022/03/07 11:20:52;;;;;;;19.40;10.30;;;-0.70;99.90;;;;;;5091816;28;20647;-61
2022/03/07 11:23:18;;;;;;;20.93;11.07;;;-0.70;99.90;;;;;;5091175;28;20242;-60
2022/03/07 11:25:46;;;;;;;21.63;10.73;;;-0.70;99.90;;;;;;5091593;28;20177;-60
2022/03/07 11:28:12;;;;;;;22.37;10.40;;;-0.60;99.90;;;;;;5056559;28;20188;-61
2022/03/07 11:30:42;;;;;;;26.33;11.13;;;-0.50;99.90;;;;;;5090672;28;20180;-63
2022/03/07 11:33:10;;;;;;;23.97;10.57;;;-0.50;99.90;;;;;;5072667;28;20262;-61
2022/03/07 11:35:37;;;;;;;22.27;11.63;;;-0.60;99.90;;;;;;5091222;28;20263;-59
2022/03/07 11:38:20;;;;;;;21.73;11.57;;;-0.60;99.90;;;;;;5091108;28;20184;-62
2022/03/07 11:40:59;;;;;;;18.87;11.30;;;-0.60;99.90;;;;;;5091226;28;20176;-61
2022/03/07 11:43:28;;;;;;;24.17;12.97;;;-0.50;99.90;;;;;;5090722;28;20211;-60
2022/03/07 11:45:55;;;;;;;23.83;13.00;;;-0.50;99.90;;;;;;5072378;28;20280;-61
2022/03/07 11:48:21;;;;;;;28.10;13.27;;;-0.30;99.90;;;;;;5072429;28;20618;-60
2022/03/07 11:50:48;;;;;;;23.60;12.53;;;-0.30;99.90;;;;;;5090915;28;20261;-62
2022/03/07 11:53:15;;;;;;;19.57;11.10;;;-0.20;99.90;;;;;;5090590;28;20219;-61
2022/03/07 11:55:47;;;;;;;20.20;11.37;;;-0.20;99.90;;;;;;5090870;28;20176;-60
2022/03/07 11:58:13;;;;;;;22.83;11.13;;;-0.30;99.90;;;;;;5089981;28;20169;-58
2022/03/07 12:00:39;;;;;;;23.97;11.20;;;-0.40;99.90;;;;;;5089810;28;20177;-59
2022/03/07 12:03:18;;;;;;;22.93;12.13;;;-0.40;99.90;;;;;;5089994;28;20223;-62
2022/03/07 12:05:44;;;;;;;14.07;8.37;;;-0.40;99.90;;;;;;5091108;28;20208;-59
2022/03/07 12:08:19;;;;;;;23.57;11.27;;;-0.40;99.90;;;;;;5072191;28;20189;-62
2022/03/07 12:11:06;;;;;;;19.97;11.17;;;-0.50;99.90;;;;;;5072402;28;20681;-63
2022/03/07 12:13:35;;;;;;;20.97;10.27;;;-0.30;99.90;;;;;;5058576;28;20185;-60
2022/03/07 12:16:02;;;;;;;19.97;10.03;;;-0.30;99.90;;;;;;5072159;28;20582;-61
2022/03/07 12:18:29;;;;;;;17.23;9.07;;;-0.30;99.90;;;;;;5090559;28;20176;-63
2022/03/07 12:20:57;;;;;;;19.20;10.57;;;-0.30;99.90;;;;;;5090781;28;20614;-59
2022/03/07 12:23:27;;;;;;;20.77;10.20;;;-0.30;99.90;;;;;;5090848;28;20818;-60
2022/03/07 12:26:05;;;;;;;18.73;10.87;;;-0.20;99.90;;;;;;5055927;28;20609;-59
2022/03/07 12:28:37;;;;;;;16.23;9.13;;;-0.20;99.90;;;;;;5090783;28;20173;-60